Terminal Aerodrome Forecast
Issued by NWS Norman, OK

Home | Current Version | Previous Version | Text Only | Print | Product List | Glossary On
Versions: 1 2 3 4 5 6 7 8 9 10 11 12 13
000
FTUS44 KOUN 301142
TAFSPS
TAF
KSPS 301142Z 3012/0112 24012G20KT P6SM SCT025
      TEMPO 3012/3013 BKN025
     FM301400 25027G37KT P6SM BKN040
     FM301800 29033G44KT P6SM SCT050
     FM010100 26013KT P6SM SKC=

USA.gov is the U.S. government's official web portal to all federal, state and local government web resources and services.